Absecon City, New Jersey
Current Conditions -  °F | °C
As of 4:54 PM on Saturday 25 Oct 2014 (Local Time) from KACY Reporting Station
Clear Clear  
Wind Chill: 67°   Ceiling: Unl
Heat Index: 67°   Visibility: 10mi
Dew Point: 43°   Wind: 9mph
Humidity: 42%   Direction: 250°WSW
Pressure: 29.73"   Gusts: NA
Location:  39.4315°N, 74.5003°W
Report Text: KACY 252054Z AUTO 25008KT 10SM CLR 19/06 A2973 RMK AO2 SLP067 T01940061 58016 TSNO
Loading
Personal Weather Stations






























Interactive Weather Map
Tropical Storm Tracking
New forecast layout! Learn more

10-Day Weather Forecast

Advertisements
Track Severe Weather on mobile